Aérodrome :
LOGIN :

S'inscrire | Disclaimer

   EN    FR    IT 

 










Légende :    VFR   VFR Marginal   IFR   IFR Intensif   IFR Très Intensif
Visi : 
Plafond : 
>= 8 km
>= 3000ft
5 à 8 km
1000 à 3000 ft
1500m à 5 km
500 à 1000 ft
800 à 1500m
200 à 500 ft
< 800m
< 200 ft
Symboles :   Orages  Brouillard  Fortes neiges  Fortes précipitations  Vent > 20 kt
SIGMETs :   Divers  Orages  Givrage  Turbulence  Onde Orograph.  Cendres Volcan.







- Altitude de l'aérodrome : 144 ft
- Code IATA : PGF
- Voir les cartes d'approche


LFMP - Perpignan

DERNIER METAR :
  • 242030Z AUTO VRB02KT CAVOK 22/12 Q1016 NOSIG

METARs EXPIRÉS :
  • 242000Z AUTO VRB02KT CAVOK 24/11 Q1016 NOSIG
  • 241930Z AUTO 14003KT CAVOK 24/11 Q1016 NOSIG
  • 241900Z AUTO 11003KT 090V160 CAVOK 25/12 Q1015 NOSIG
  • 241830Z AUTO 11006KT CAVOK 26/11 Q1015 NOSIG
  • 241800Z AUTO 13004KT 090V170 CAVOK 27/12 Q1015 NOSIG

TAF TAF LFMP
Valide du 24 à 15h jusqu'au 25 à 15h UTC


241400Z 2415/2515 11010KT CAVOK
BECMG 2416/2418 VRB05KT
BECMG 2512/2515 12010G20KT
ATIS : +33 4 68 63 75 12
Pas de NOTAMs connus pour ce terrain.



MET'MAP, la Météo Aéronautique d'un coup d'oeil ! - Copyright ORBIFLY Décembre 2007 - Disclaimer

ORBIFLY MET'MAP TEAM :

Programmation & Développement : Alexandra Zaïnal
Conception & Développement : Baudouin d'Aumeries
Co-Programmation & Développement : Marc-Olivier Méhu
Soutien technique & logistique : Manuel Goepfert

Contact : metmap@orbifly.com




SOURCES & CREDITS :

   NOAA